MSC Florentina — HPFH — position and weather

sailwx.info

Track history (hours):
 
Tides and Currents Weather Stations Pressure Air Temp Water Temp Dewpoint Dewpoint Depression Visibility Wind Speed Wind Dir Waves Ship Positions

MSC Florentina

Last reported at 2015-Apr-28 13:28 UTC. Time now 2015-Apr-28 14:32 UTC.
Position N 25°46' W 080°10'.

Length 300 m; draft 12.4 m.

Type: Ship. MMSI: 352870000.

Date/timePositionNaut miles runAvg speedWind from/ knotsBaromVisibWave heightAir tempDewpointWater temp
2015-Apr-28 13:28N 25°46' W 080°10'1 0.5
2015-Apr-28 11:05N 25°46' W 080°08'4 7.6
2015-Apr-28 10:33N 25°46' W 080°04'1212.2
2015-Apr-28 09:33N 25°37' W 079°54'7311.3
2015-Apr-28 03:06N 24°26' W 080°13'61413.4
2015-Apr-26 05:22N 29°55' W 089°55'910.0
2015-Apr-26 04:26N 29°55' W 090°06'0 0.3
2015-Apr-26 03:09N 29°55' W 090°07'0 0.0
2015-Apr-26 02:33N 29°55' W 090°07'0 0.0
2015-Apr-26 01:33N 29°55' W 090°07'0 0.0
2015-Apr-26 00:33N 29°55' W 090°07'0 0.0
2015-Apr-25 23:33N 29°55' W 090°07'0 0.0
2015-Apr-25 22:06N 29°55' W 090°07'0 0.0
2015-Apr-25 19:33N 29°55' W 090°07'0 0.0
2015-Apr-25 14:32N 29°55' W 090°07'0 0.0
2015-Apr-25 13:32N 29°55' W 090°07'0 0.0
2015-Apr-25 11:32N 29°55' W 090°07'3 1.5
2015-Apr-25 09:33N 29°56' W 090°04'6 5.8
2015-Apr-25 08:26N 29°55' W 089°56'3 3.8
2015-Apr-25 07:33N 29°53' W 089°58'248 7.2
2015-Apr-23 21:10N 29°20' W 094°41'812.8
2015-Apr-23 20:33N 29°24' W 094°49'1211.7
2015-Apr-23 19:33N 29°34' W 094°56'5 4.5
2015-Apr-23 18:31N 29°37' W 095°00'0 0.0
2015-Apr-23 17:31N 29°37' W 095°00'0 0.0
2015-Apr-23 16:31N 29°37' W 095°00'0 0.0
2015-Apr-23 15:31N 29°37' W 095°00'0 0.0
2015-Apr-23 14:31N 29°37' W 095°00'0 0.0
2015-Apr-23 13:31N 29°37' W 095°00'0 0.0
2015-Apr-23 12:31N 29°37' W 095°00'0 0.0
2015-Apr-23 11:31N 29°37' W 095°00'0 0.0
2015-Apr-23 10:28N 29°37' W 095°00'0 0.0
2015-Apr-23 09:31N 29°37' W 095°00'0 0.0
2015-Apr-23 08:31N 29°37' W 095°00'0 0.0
2015-Apr-23 07:31N 29°37' W 095°00'0 0.0
2015-Apr-23 06:31N 29°37' W 095°00'0 0.0
2015-Apr-23 05:31N 29°37' W 095°00'0 0.0
2015-Apr-23 04:31N 29°37' W 095°00'0 0.0
2015-Apr-23 03:31N 29°37' W 095°00'0 0.0
2015-Apr-23 02:31N 29°37' W 095°00'0 0.0
2015-Apr-23 01:31N 29°37' W 095°00'0 0.0
2015-Apr-23 00:31N 29°37' W 095°00'0 0.0
2015-Apr-22 23:31N 29°37' W 095°00'0 0.0
2015-Apr-22 22:31N 29°37' W 095°00'0 0.0
2015-Apr-22 21:31N 29°37' W 095°00'0 0.0
2015-Apr-22 20:31N 29°37' W 095°00'0 0.0
2015-Apr-22 19:31N 29°37' W 095°00'0 0.0
2015-Apr-22 18:31N 29°37' W 095°00'0 0.0
2015-Apr-22 17:31N 29°37' W 095°00'0 0.0
2015-Apr-22 16:31N 29°37' W 095°00'0 0.0
2015-Apr-22 15:31N 29°37' W 095°00'0 0.0
2015-Apr-22 14:31N 29°37' W 095°00'0 0.0
2015-Apr-22 13:28N 29°37' W 095°00'0 0.0
2015-Apr-22 12:31N 29°37' W 095°00'0 0.0
2015-Apr-22 11:31N 29°37' W 095°00'0 0.0
2015-Apr-22 10:31N 29°37' W 095°00'0 0.0
2015-Apr-22 09:31N 29°37' W 095°00'0 0.0
2015-Apr-22 08:31N 29°37' W 095°00'0 0.0
2015-Apr-22 07:31N 29°37' W 095°00'0 0.0
2015-Apr-22 06:31N 29°37' W 095°00'0 0.0
2015-Apr-22 05:31N 29°37' W 095°00'1 0.8
2015-Apr-22 04:33N 29°37' W 095°01'5 5.2
2015-Apr-22 03:33N 29°35' W 094°56'1010.2
2015-Apr-22 02:33N 29°26' W 094°50'58616.7
2015-Apr-20 15:33N 19°43' W 095°56'1717.0
2015-Apr-20 14:33N 19°26' W 095°57'1515.4
2015-Apr-20 13:34N 19°12' W 096°02'6 5.7
2015-Apr-20 12:33N 19°13' W 096°08'0 0.0
2015-Apr-20 11:33N 19°13' W 096°08'0 0.0
2015-Apr-20 10:33N 19°13' W 096°08'0 0.0
2015-Apr-20 09:33N 19°13' W 096°08'0 0.0
2015-Apr-20 08:33N 19°13' W 096°08'0 0.0
2015-Apr-20 07:33N 19°13' W 096°08'0 0.0
2015-Apr-20 06:33N 19°13' W 096°08'0 0.0
2015-Apr-20 05:33N 19°13' W 096°08'0 0.0
2015-Apr-20 04:33N 19°13' W 096°08'0 0.0
2015-Apr-20 03:33N 19°13' W 096°08'0 0.0
2015-Apr-20 02:33N 19°13' W 096°08'0 0.0
2015-Apr-20 01:33N 19°13' W 096°08'0 0.0
2015-Apr-20 00:30N 19°13' W 096°08'0 0.0
2015-Apr-19 23:33N 19°13' W 096°08'0 0.0
2015-Apr-19 22:30N 19°13' W 096°08'0 0.0
2015-Apr-19 21:33N 19°13' W 096°08'0 0.0
2015-Apr-19 20:33N 19°13' W 096°08'0 0.0
2015-Apr-19 19:33N 19°13' W 096°08'4 4.3
2015-Apr-19 18:33N 19°11' W 096°04'9 9.3
2015-Apr-19 17:34N 19°20' W 096°00'1312.8
2015-Apr-19 16:33N 19°32' W 096°06'  
Track history (hours):
 
Tides and Currents Weather Stations Pressure Air Temp Water Temp Dewpoint Dewpoint Depression Visibility Wind Speed Wind Dir Waves Ship Positions

MSC Florentina

Last reported at 2015-Apr-28 13:28 UTC. Time now 2015-Apr-28 14:32 UTC.
Position N 25°46' W 080°10'.

Length 300 m; draft 12.4 m.

Type: Ship. MMSI: 352870000.

Date/timePositionNaut miles runAvg speedWind from/ knotsBaromVisibWave heightAir tempDewpointWater temp
2015-Apr-28 13:28N 25°46' W 080°10'1 0.5
2015-Apr-28 11:05N 25°46' W 080°08'4 7.6
2015-Apr-28 10:33N 25°46' W 080°04'1212.2
2015-Apr-28 09:33N 25°37' W 079°54'7311.3
2015-Apr-28 03:06N 24°26' W 080°13'61413.4
2015-Apr-26 05:22N 29°55' W 089°55'910.0
2015-Apr-26 04:26N 29°55' W 090°06'0 0.3
2015-Apr-26 03:09N 29°55' W 090°07'0 0.0
2015-Apr-26 02:33N 29°55' W 090°07'0 0.0
2015-Apr-26 01:33N 29°55' W 090°07'0 0.0
2015-Apr-26 00:33N 29°55' W 090°07'0 0.0
2015-Apr-25 23:33N 29°55' W 090°07'0 0.0
2015-Apr-25 22:06N 29°55' W 090°07'0 0.0
2015-Apr-25 19:33N 29°55' W 090°07'0 0.0
2015-Apr-25 14:32N 29°55' W 090°07'0 0.0
2015-Apr-25 13:32N 29°55' W 090°07'0 0.0
2015-Apr-25 11:32N 29°55' W 090°07'3 1.5
2015-Apr-25 09:33N 29°56' W 090°04'6 5.8
2015-Apr-25 08:26N 29°55' W 089°56'3 3.8
2015-Apr-25 07:33N 29°53' W 089°58'248 7.2
2015-Apr-23 21:10N 29°20' W 094°41'812.8
2015-Apr-23 20:33N 29°24' W 094°49'1211.7
2015-Apr-23 19:33N 29°34' W 094°56'5 4.5
2015-Apr-23 18:31N 29°37' W 095°00'0 0.0
2015-Apr-23 17:31N 29°37' W 095°00'0 0.0
2015-Apr-23 16:31N 29°37' W 095°00'0 0.0
2015-Apr-23 15:31N 29°37' W 095°00'0 0.0
2015-Apr-23 14:31N 29°37' W 095°00'0 0.0
2015-Apr-23 13:31N 29°37' W 095°00'0 0.0
2015-Apr-23 12:31N 29°37' W 095°00'0 0.0
2015-Apr-23 11:31N 29°37' W 095°00'0 0.0
2015-Apr-23 10:28N 29°37' W 095°00'0 0.0
2015-Apr-23 09:31N 29°37' W 095°00'0 0.0
2015-Apr-23 08:31N 29°37' W 095°00'0 0.0
2015-Apr-23 07:31N 29°37' W 095°00'0 0.0
2015-Apr-23 06:31N 29°37' W 095°00'0 0.0
2015-Apr-23 05:31N 29°37' W 095°00'0 0.0
2015-Apr-23 04:31N 29°37' W 095°00'0 0.0
2015-Apr-23 03:31N 29°37' W 095°00'0 0.0
2015-Apr-23 02:31N 29°37' W 095°00'0 0.0
2015-Apr-23 01:31N 29°37' W 095°00'0 0.0
2015-Apr-23 00:31N 29°37' W 095°00'0 0.0
2015-Apr-22 23:31N 29°37' W 095°00'0 0.0
2015-Apr-22 22:31N 29°37' W 095°00'0 0.0
2015-Apr-22 21:31N 29°37' W 095°00'0 0.0
2015-Apr-22 20:31N 29°37' W 095°00'0 0.0
2015-Apr-22 19:31N 29°37' W 095°00'0 0.0
2015-Apr-22 18:31N 29°37' W 095°00'0 0.0
2015-Apr-22 17:31N 29°37' W 095°00'0 0.0
2015-Apr-22 16:31N 29°37' W 095°00'0 0.0
2015-Apr-22 15:31N 29°37' W 095°00'0 0.0
2015-Apr-22 14:31N 29°37' W 095°00'0 0.0
2015-Apr-22 13:28N 29°37' W 095°00'0 0.0
2015-Apr-22 12:31N 29°37' W 095°00'0 0.0
2015-Apr-22 11:31N 29°37' W 095°00'0 0.0
2015-Apr-22 10:31N 29°37' W 095°00'0 0.0
2015-Apr-22 09:31N 29°37' W 095°00'0 0.0
2015-Apr-22 08:31N 29°37' W 095°00'0 0.0
2015-Apr-22 07:31N 29°37' W 095°00'0 0.0
2015-Apr-22 06:31N 29°37' W 095°00'0 0.0
2015-Apr-22 05:31N 29°37' W 095°00'1 0.8
2015-Apr-22 04:33N 29°37' W 095°01'5 5.2
2015-Apr-22 03:33N 29°35' W 094°56'1010.2
2015-Apr-22 02:33N 29°26' W 094°50'58616.7
2015-Apr-20 15:33N 19°43' W 095°56'1717.0
2015-Apr-20 14:33N 19°26' W 095°57'1515.4
2015-Apr-20 13:34N 19°12' W 096°02'6 5.7
2015-Apr-20 12:33N 19°13' W 096°08'0 0.0
2015-Apr-20 11:33N 19°13' W 096°08'0 0.0
2015-Apr-20 10:33N 19°13' W 096°08'0 0.0
2015-Apr-20 09:33N 19°13' W 096°08'0 0.0
2015-Apr-20 08:33N 19°13' W 096°08'0 0.0
2015-Apr-20 07:33N 19°13' W 096°08'0 0.0
2015-Apr-20 06:33N 19°13' W 096°08'0 0.0
2015-Apr-20 05:33N 19°13' W 096°08'0 0.0
2015-Apr-20 04:33N 19°13' W 096°08'0 0.0
2015-Apr-20 03:33N 19°13' W 096°08'0 0.0
2015-Apr-20 02:33N 19°13' W 096°08'0 0.0
2015-Apr-20 01:33N 19°13' W 096°08'0 0.0
2015-Apr-20 00:30N 19°13' W 096°08'0 0.0
2015-Apr-19 23:33N 19°13' W 096°08'0 0.0
2015-Apr-19 22:30N 19°13' W 096°08'0 0.0
2015-Apr-19 21:33N 19°13' W 096°08'0 0.0
2015-Apr-19 20:33N 19°13' W 096°08'0 0.0
2015-Apr-19 19:33N 19°13' W 096°08'4 4.3
2015-Apr-19 18:33N 19°11' W 096°04'9 9.3
2015-Apr-19 17:34N 19°20' W 096°00'1312.8
2015-Apr-19 16:33N 19°32' W 096°06'  

Dump ship's entire track history